Spirit Of Oceanus — C6PJ8 — position and weather

sailwx.info

Track history (hours):
 
Tides and Currents Weather Stations Pressure Air Temp Water Temp Dewpoint Dewpoint Depression Visibility Wind Speed Wind Dir Waves Ship Positions

Spirit Of Oceanus

Last reported at 2015-Nov-02 09:15 UTC. Time now 2016-Feb-09 03:13 UTC.
Position S 35°22' W 055°37'.
Warning: this ship's position is months out of date.

Type: Passenger vessel. MMSI: 309224000.

Date/timePositionNaut miles runAvg speedWind from/ knotsBaromVisibWave heightAir tempDewpointWater temp
2015-Nov-02 09:15S 35°22' W 055°37'1411.3
2015-Nov-02 08:03S 35°09' W 055°44'714.2
2015-Nov-02 07:33S 35°06' W 055°52'9 8.7
2015-Nov-02 06:31S 35°05' W 056°02'9 9.2
2015-Nov-02 05:33S 35°09' W 056°12'1212.2
2015-Nov-02 04:32S 35°10' W 056°27'2512.8
2015-Nov-02 02:33S 35°10' W 056°58'5112.7
2015-Nov-01 22:32S 34°44' W 057°52'1511.9
2015-Nov-01 21:18S 34°38' W 058°08'1013.9
2015-Nov-01 20:33S 34°36' W 058°21'1 0.0
2015-Oct-31 09:32S 34°36' W 058°19'1110.8
2015-Oct-31 08:33S 34°38' W 058°06'1212.5
2015-Oct-31 07:34S 34°43' W 057°52'9 8.8
2015-Oct-31 06:31S 34°45' W 057°42'36 8.9
2015-Oct-31 02:29S 35°06' W 057°06'8 8.7
2015-Oct-31 01:33S 35°10' W 056°57'9 9.1
2015-Oct-31 00:33S 35°10' W 056°46'12 9.2
2015-Oct-30 23:15S 35°10' W 056°31'6 9.1
2015-Oct-30 22:33S 35°10' W 056°24'9 9.1
2015-Oct-30 21:33S 35°03' W 056°16'9 9.4
2015-Oct-30 20:33S 34°54' W 056°13'0 0.1
2015-Oct-30 19:30S 34°54' W 056°13'0 0.0
2015-Oct-29 23:32S 34°54' W 056°13'0 0.0
2015-Oct-28 20:32S 34°54' W 056°13'0 0.0
2015-Oct-28 19:32S 34°54' W 056°13'0 0.0
2015-Oct-28 18:29S 34°54' W 056°13'0 0.0
2015-Oct-28 17:23S 34°54' W 056°13'0 0.0
2015-Oct-28 16:32S 34°54' W 056°13'0 0.0
2015-Oct-28 15:23S 34°54' W 056°13'0 0.0
2015-Oct-28 14:23S 34°54' W 056°13'0 0.0
2015-Oct-28 13:26S 34°54' W 056°13'1 0.7
2015-Oct-28 12:25S 34°55' W 056°14'6 3.0
2015-Oct-28 10:26S 35°00' W 056°13'4 3.6
2015-Oct-28 09:27S 35°01' W 056°09'7 7.2
2015-Oct-28 08:29S 35°02' W 056°01'7 7.0
2015-Oct-28 07:31S 35°03' W 055°53'7 6.5
2015-Oct-28 06:25S 35°04' W 055°44'910.1
2015-Oct-28 05:30S 35°04' W 055°32'2412.0
2015-Oct-28 03:29S 35°04' W 055°03'  
Track history (hours):
 
Tides and Currents Weather Stations Pressure Air Temp Water Temp Dewpoint Dewpoint Depression Visibility Wind Speed Wind Dir Waves Ship Positions

Spirit Of Oceanus

Last reported at 2015-Nov-02 09:15 UTC. Time now 2016-Feb-09 03:13 UTC.
Position S 35°22' W 055°37'.
Warning: this ship's position is months out of date.

Type: Passenger vessel. MMSI: 309224000.

Date/timePositionNaut miles runAvg speedWind from/ knotsBaromVisibWave heightAir tempDewpointWater temp
2015-Nov-02 09:15S 35°22' W 055°37'1411.3
2015-Nov-02 08:03S 35°09' W 055°44'714.2
2015-Nov-02 07:33S 35°06' W 055°52'9 8.7
2015-Nov-02 06:31S 35°05' W 056°02'9 9.2
2015-Nov-02 05:33S 35°09' W 056°12'1212.2
2015-Nov-02 04:32S 35°10' W 056°27'2512.8
2015-Nov-02 02:33S 35°10' W 056°58'5112.7
2015-Nov-01 22:32S 34°44' W 057°52'1511.9
2015-Nov-01 21:18S 34°38' W 058°08'1013.9
2015-Nov-01 20:33S 34°36' W 058°21'1 0.0
2015-Oct-31 09:32S 34°36' W 058°19'1110.8
2015-Oct-31 08:33S 34°38' W 058°06'1212.5
2015-Oct-31 07:34S 34°43' W 057°52'9 8.8
2015-Oct-31 06:31S 34°45' W 057°42'36 8.9
2015-Oct-31 02:29S 35°06' W 057°06'8 8.7
2015-Oct-31 01:33S 35°10' W 056°57'9 9.1
2015-Oct-31 00:33S 35°10' W 056°46'12 9.2
2015-Oct-30 23:15S 35°10' W 056°31'6 9.1
2015-Oct-30 22:33S 35°10' W 056°24'9 9.1
2015-Oct-30 21:33S 35°03' W 056°16'9 9.4
2015-Oct-30 20:33S 34°54' W 056°13'0 0.1
2015-Oct-30 19:30S 34°54' W 056°13'0 0.0
2015-Oct-29 23:32S 34°54' W 056°13'0 0.0
2015-Oct-28 20:32S 34°54' W 056°13'0 0.0
2015-Oct-28 19:32S 34°54' W 056°13'0 0.0
2015-Oct-28 18:29S 34°54' W 056°13'0 0.0
2015-Oct-28 17:23S 34°54' W 056°13'0 0.0
2015-Oct-28 16:32S 34°54' W 056°13'0 0.0
2015-Oct-28 15:23S 34°54' W 056°13'0 0.0
2015-Oct-28 14:23S 34°54' W 056°13'0 0.0
2015-Oct-28 13:26S 34°54' W 056°13'1 0.7
2015-Oct-28 12:25S 34°55' W 056°14'6 3.0
2015-Oct-28 10:26S 35°00' W 056°13'4 3.6
2015-Oct-28 09:27S 35°01' W 056°09'7 7.2
2015-Oct-28 08:29S 35°02' W 056°01'7 7.0
2015-Oct-28 07:31S 35°03' W 055°53'7 6.5
2015-Oct-28 06:25S 35°04' W 055°44'910.1
2015-Oct-28 05:30S 35°04' W 055°32'2412.0
2015-Oct-28 03:29S 35°04' W 055°03'  

Dump ship's entire track history